createdAt,value
2022-12-01T00:01:26.019Z,101984.72
2022-12-01T00:06:47.814Z,101985.78
2022-12-01T00:12:09.770Z,101987.44
2022-12-01T00:17:31.590Z,101963.59
2022-12-01T00:22:53.897Z,101982.25
2022-12-01T00:28:15.695Z,101988.72
2022-12-01T00:33:38.033Z,101974.50
2022-12-01T00:38:59.838Z,101978.78
2022-12-01T00:44:21.622Z,101970.00
2022-12-01T00:49:44.066Z,101974.69
2022-12-01T00:55:06.342Z,101946.38
2022-12-01T01:00:28.264Z,101953.44
2022-12-01T01:05:50.173Z,101957.66
2022-12-01T01:11:12.104Z,101953.34
2022-12-01T01:16:34.596Z,101939.66
2022-12-01T01:21:56.395Z,101939.47
2022-12-01T01:27:18.223Z,101956.97
2022-12-01T01:32:40.102Z,101952.53
2022-12-01T01:38:01.892Z,101958.22
2022-12-01T01:43:41.908Z,101962.31
2022-12-01T01:49:09.683Z,101958.44
2022-12-01T01:54:36.168Z,101949.13
2022-12-01T02:00:00.966Z,101958.00
2022-12-01T02:05:26.631Z,101963.03
2022-12-01T02:11:19.451Z,101965.72
2022-12-01T02:17:00.421Z,101955.75
2022-12-01T02:22:35.665Z,101948.34
2022-12-01T02:28:06.374Z,101953.56
2022-12-01T02:33:53.960Z,101947.88
2022-12-01T02:39:33.927Z,101947.44
2022-12-01T02:44:57.450Z,101939.78
2022-12-01T02:50:22.055Z,101936.97
2022-12-01T02:55:48.558Z,101954.78
2022-12-01T03:01:43.889Z,101934.22
2022-12-01T03:07:14.654Z,101950.66
2022-12-01T03:12:51.598Z,101942.16
2022-12-01T03:18:43.699Z,101936.69
2022-12-01T03:24:17.258Z,101917.25
2022-12-01T03:29:43.647Z,101926.00
2022-12-01T03:35:13.579Z,101934.44
2022-12-01T03:40:39.047Z,101925.63
2022-12-01T03:46:13.438Z,101929.63
2022-12-01T03:51:56.185Z,101925.41
2022-12-01T03:57:25.259Z,101931.69
2022-12-01T04:02:47.171Z,101921.09
2022-12-01T04:08:09.114Z,101925.28
2022-12-01T04:13:30.921Z,101919.16
2022-12-01T04:18:52.714Z,101922.28
2022-12-01T04:24:15.531Z,101923.09
2022-12-01T04:29:37.342Z,101919.78
2022-12-01T04:34:59.115Z,101925.97
2022-12-01T04:40:20.874Z,101913.06
2022-12-01T04:45:42.678Z,101918.31
2022-12-01T04:51:06.520Z,101939.75
2022-12-01T04:56:28.618Z,101931.25
2022-12-01T05:01:50.526Z,101940.03
2022-12-01T05:07:12.374Z,101938.44
2022-12-01T05:12:34.134Z,101946.00
2022-12-01T05:17:55.909Z,101931.41
2022-12-01T05:23:17.678Z,101924.19
2022-12-01T05:28:40.075Z,101945.50
2022-12-01T05:34:01.909Z,101943.31
2022-12-01T05:39:23.686Z,101930.94
2022-12-01T05:44:45.478Z,101948.50
2022-12-01T05:50:08.265Z,101932.28
2022-12-01T05:55:30.100Z,101948.34
2022-12-01T06:00:51.882Z,101944.84
2022-12-01T06:06:13.864Z,101937.50
2022-12-01T06:11:35.861Z,101941.13
2022-12-01T06:16:57.680Z,101923.22
2022-12-01T06:22:19.483Z,101933.25
2022-12-01T06:27:41.276Z,101927.31
2022-12-01T06:33:03.109Z,101945.31
2022-12-01T06:38:24.970Z,101948.94
2022-12-01T06:43:46.753Z,101944.13
2022-12-01T06:49:12.637Z,101934.56
2022-12-01T06:54:34.417Z,101942.09
2022-12-01T06:59:56.386Z,101939.22
2022-12-01T07:05:18.555Z,101936.00
2022-12-01T07:10:40.335Z,101948.59
2022-12-01T07:16:03.228Z,101925.34
2022-12-01T07:21:25.311Z,101945.78
2022-12-01T07:26:47.117Z,101933.50
2022-12-01T07:32:08.873Z,101952.38
2022-12-01T07:37:30.682Z,101946.19
2022-12-01T07:42:52.469Z,101941.75
2022-12-01T07:48:14.287Z,101951.13
2022-12-01T07:53:36.651Z,101934.47
2022-12-01T07:58:58.897Z,101934.31
2022-12-01T08:04:20.678Z,101935.47
2022-12-01T08:09:42.530Z,101950.41
2022-12-01T08:15:04.656Z,101942.06
2022-12-01T08:20:26.457Z,101943.47
2022-12-01T08:25:48.217Z,101944.88
2022-12-01T08:31:13.019Z,101926.28
2022-12-01T08:36:35.783Z,101932.44
2022-12-01T08:41:57.589Z,101945.97
2022-12-01T08:47:19.430Z,101952.59
2022-12-01T08:52:41.320Z,101953.47
2022-12-01T08:58:03.148Z,101959.38
2022-12-01T09:03:25.141Z,101961.06
2022-12-01T09:08:47.599Z,101970.28
2022-12-01T09:14:10.433Z,101948.72
2022-12-01T09:19:32.404Z,101956.56
2022-12-01T09:24:54.191Z,101968.59
2022-12-01T09:30:16.519Z,101952.94
2022-12-01T09:35:38.404Z,101953.19
2022-12-01T09:41:04.430Z,101942.31
2022-12-01T09:46:32.094Z,101939.94
2022-12-01T09:51:55.015Z,101955.94
2022-12-01T09:57:23.353Z,101948.91
2022-12-01T10:02:57.159Z,101942.34
2022-12-01T10:08:26.923Z,101932.16
2022-12-01T10:13:49.123Z,101943.78
2022-12-01T10:19:25.989Z,101943.91
2022-12-01T10:25:01.605Z,101930.03
2022-12-01T10:30:24.953Z,101928.06
2022-12-01T10:35:46.806Z,101912.06
2022-12-01T10:41:14.478Z,101924.19
2022-12-01T10:46:53.873Z,101905.84
2022-12-01T10:52:38.249Z,101918.28
2022-12-01T10:58:09.108Z,101912.88
2022-12-01T11:03:34.893Z,101901.78
2022-12-01T11:09:01.038Z,101899.09
2022-12-01T11:14:30.492Z,101902.06
2022-12-01T11:19:52.832Z,101883.66
2022-12-01T11:25:21.996Z,101897.09
2022-12-01T11:30:43.910Z,101887.50
2022-12-01T11:36:11.737Z,101904.28
2022-12-01T11:41:39.653Z,101878.16
2022-12-01T11:47:23.170Z,101880.06
2022-12-01T11:52:47.181Z,101886.38
2022-12-01T11:58:09.230Z,101887.38
2022-12-01T12:03:46.390Z,101887.06
2022-12-01T12:09:27.162Z,101890.47
2022-12-01T12:15:19.902Z,101885.19
2022-12-01T12:20:56.060Z,101886.91
2022-12-01T12:26:25.331Z,101891.56
2022-12-01T12:31:56.207Z,101883.06
2022-12-01T12:37:23.050Z,101887.72
2022-12-01T12:43:02.706Z,101875.28
2022-12-01T12:48:57.346Z,101887.47
2022-12-01T12:54:36.675Z,101886.13
2022-12-01T13:00:15.372Z,101887.53
2022-12-01T13:05:55.609Z,101886.06
2022-12-01T13:11:23.914Z,101885.81
2022-12-01T13:16:49.306Z,101877.38
2022-12-01T13:22:13.327Z,101868.03
2022-12-01T13:27:40.892Z,101870.44
2022-12-01T13:33:05.092Z,101871.66
2022-12-01T13:38:34.213Z,101860.03
2022-12-01T13:43:55.955Z,101873.31
2022-12-01T13:49:43.532Z,101873.88
2022-12-01T13:55:08.313Z,101877.63
2022-12-01T14:00:32.897Z,101871.38
2022-12-01T14:06:05.484Z,101875.97
2022-12-01T14:11:29.743Z,101866.19
2022-12-01T14:16:54.422Z,101869.84
2022-12-01T14:22:39.465Z,101884.69
2022-12-01T14:28:03.330Z,101870.63
2022-12-01T14:38:47.242Z,101881.84
2022-12-01T14:44:30.620Z,101876.69
2022-12-01T14:50:03.123Z,101888.53
2022-12-01T14:55:40.386Z,101870.03
2022-12-01T15:01:11.761Z,101875.63
2022-12-01T15:06:35.554Z,101876.81
2022-12-01T15:12:03.073Z,101871.09
2022-12-01T15:17:32.938Z,101873.47
2022-12-01T15:22:55.838Z,101867.56
2022-12-01T15:28:29.009Z,101859.28
2022-12-01T15:33:53.371Z,101875.59
2022-12-01T15:39:36.463Z,101867.00
2022-12-01T15:45:00.995Z,101873.75
2022-12-01T15:50:46.007Z,101873.88
2022-12-01T15:56:10.322Z,101881.31
2022-12-01T16:01:32.512Z,101881.09
2022-12-01T16:07:03.214Z,101893.13
2022-12-01T16:12:27.711Z,101882.72
2022-12-01T16:17:51.435Z,101903.41
2022-12-01T16:23:23.649Z,101902.69
2022-12-01T16:28:45.749Z,101895.41
2022-12-01T16:34:44.089Z,101904.81
2022-12-01T16:39:57.948Z,101916.19
2022-12-01T16:45:20.426Z,101913.03
2022-12-01T16:50:42.229Z,101913.16
2022-12-01T16:56:04.178Z,101906.47
2022-12-01T17:01:26.001Z,101896.47
2022-12-01T17:06:47.930Z,101908.22
2022-12-01T17:12:09.697Z,101898.88
2022-12-01T17:17:31.485Z,101908.94
2022-12-01T17:22:53.322Z,101898.63
2022-12-01T17:28:15.180Z,101897.41
2022-12-01T17:33:37.000Z,101895.69
2022-12-01T17:38:58.909Z,101887.50
2022-12-01T17:44:21.083Z,101897.69
2022-12-01T17:49:42.854Z,101908.19
2022-12-01T17:55:04.974Z,101901.94
2022-12-01T18:00:26.800Z,101888.66
2022-12-01T18:05:56.279Z,101895.28
2022-12-01T18:11:18.084Z,101882.41
2022-12-01T18:16:39.878Z,101880.59
2022-12-01T18:22:01.644Z,101878.81
2022-12-01T18:27:23.523Z,101883.25
2022-12-01T18:32:45.341Z,101887.78
2022-12-01T18:38:07.145Z,101893.03
2022-12-01T18:43:31.169Z,101888.28
2022-12-01T18:48:55.731Z,101897.53
2022-12-01T18:54:17.542Z,101895.00
2022-12-01T18:59:39.307Z,101888.72
2022-12-01T19:05:01.097Z,101893.00
2022-12-01T19:10:23.441Z,101898.09
2022-12-01T19:15:45.266Z,101898.16
2022-12-01T19:21:09.430Z,101892.84
2022-12-01T19:26:31.255Z,101893.47
2022-12-01T19:31:53.169Z,101898.84
2022-12-01T19:37:15.042Z,101901.13
2022-12-01T19:42:36.803Z,101881.41
2022-12-01T19:47:58.603Z,101879.88
2022-12-01T19:53:20.370Z,101887.47
2022-12-01T19:58:42.217Z,101872.47
2022-12-01T20:04:05.358Z,101886.41
2022-12-01T20:09:27.132Z,101881.91
2022-12-01T20:14:49.380Z,101879.53
2022-12-01T20:20:12.064Z,101885.25
2022-12-01T20:25:34.200Z,101889.69
2022-12-01T20:30:56.243Z,101885.47
2022-12-01T20:36:18.421Z,101898.56
2022-12-01T20:41:40.554Z,101899.25
2022-12-01T20:47:02.420Z,101884.34
2022-12-01T20:52:24.215Z,101892.94
2022-12-01T20:57:46.343Z,101887.34
2022-12-01T21:03:08.222Z,101885.22
2022-12-01T21:08:30.088Z,101887.41
2022-12-01T21:13:51.874Z,101886.09
2022-12-01T21:19:21.074Z,101880.03
2022-12-01T21:24:44.218Z,101876.59
2022-12-01T21:30:15.773Z,101873.41
2022-12-01T21:35:37.527Z,101882.41
2022-12-01T21:40:59.412Z,101887.78
2022-12-01T21:46:21.418Z,101887.78
2022-12-01T21:51:43.730Z,101879.69
2022-12-01T21:57:24.627Z,101881.59
2022-12-01T22:02:51.911Z,101871.22
2022-12-01T22:08:13.742Z,101883.56
2022-12-01T22:13:44.753Z,101872.44
2022-12-01T22:19:15.378Z,101878.41
2022-12-01T22:24:46.673Z,101879.53
2022-12-01T22:30:08.424Z,101878.25
2022-12-01T22:35:38.909Z,101873.06
2022-12-01T22:41:09.197Z,101870.47
2022-12-01T22:46:38.017Z,101856.53
2022-12-01T22:52:14.115Z,101863.81
2022-12-01T22:57:35.964Z,101854.28
2022-12-01T23:02:58.935Z,101855.81
2022-12-01T23:08:22.619Z,101856.25
2022-12-01T23:13:44.452Z,101842.03
2022-12-01T23:19:06.237Z,101853.78
2022-12-01T23:24:32.406Z,101843.91
2022-12-01T23:29:55.655Z,101856.09
2022-12-01T23:35:18.507Z,101850.03
2022-12-01T23:40:40.319Z,101861.81
2022-12-01T23:46:11.783Z,101865.88
2022-12-01T23:51:47.297Z,101866.06
2022-12-01T23:57:20.498Z,101857.75
